sensor_id;sensor_type;location;lat;lon;timestamp;P1;durP1;ratioP1;P2;durP2;ratioP2
577;SDS011;275;48.492;9.214;2023-07-29T00:02:24;3.30;;;1.80;;
577;SDS011;275;48.492;9.214;2023-07-29T00:04:54;3.67;;;1.90;;
577;SDS011;275;48.492;9.214;2023-07-29T00:07:21;2.90;;;2.13;;
577;SDS011;275;48.492;9.214;2023-07-29T00:09:48;3.63;;;2.30;;
577;SDS011;275;48.492;9.214;2023-07-29T00:12:16;3.47;;;2.07;;
577;SDS011;275;48.492;9.214;2023-07-29T00:14:43;5.23;;;2.40;;
577;SDS011;275;48.492;9.214;2023-07-29T00:17:10;4.00;;;2.30;;
577;SDS011;275;48.492;9.214;2023-07-29T00:19:36;4.00;;;2.53;;
577;SDS011;275;48.492;9.214;2023-07-29T00:22:04;4.60;;;2.40;;
577;SDS011;275;48.492;9.214;2023-07-29T00:24:33;5.73;;;2.17;;
577;SDS011;275;48.492;9.214;2023-07-29T00:27:00;4.20;;;2.50;;
577;SDS011;275;48.492;9.214;2023-07-29T00:29:28;3.27;;;2.20;;
577;SDS011;275;48.492;9.214;2023-07-29T00:31:55;4.00;;;2.27;;
577;SDS011;275;48.492;9.214;2023-07-29T00:34:22;4.23;;;2.90;;
577;SDS011;275;48.492;9.214;2023-07-29T00:36:48;4.50;;;2.53;;
577;SDS011;275;48.492;9.214;2023-07-29T00:39:16;3.20;;;2.40;;
577;SDS011;275;48.492;9.214;2023-07-29T00:41:44;4.10;;;2.60;;
577;SDS011;275;48.492;9.214;2023-07-29T00:44:11;3.90;;;2.60;;
577;SDS011;275;48.492;9.214;2023-07-29T00:46:39;3.57;;;2.50;;
577;SDS011;275;48.492;9.214;2023-07-29T00:49:07;6.23;;;3.20;;
577;SDS011;275;48.492;9.214;2023-07-29T00:51:34;3.63;;;2.63;;
577;SDS011;275;48.492;9.214;2023-07-29T00:54:01;3.40;;;2.70;;
577;SDS011;275;48.492;9.214;2023-07-29T00:56:28;6.77;;;2.40;;
577;SDS011;275;48.492;9.214;2023-07-29T00:58:55;2.73;;;1.97;;
577;SDS011;275;48.492;9.214;2023-07-29T01:01:26;3.90;;;3.00;;
577;SDS011;275;48.492;9.214;2023-07-29T01:03:55;4.53;;;2.53;;
577;SDS011;275;48.492;9.214;2023-07-29T01:06:23;4.37;;;2.87;;
577;SDS011;275;48.492;9.214;2023-07-29T01:09:01;5.63;;;2.80;;
577;SDS011;275;48.492;9.214;2023-07-29T01:11:33;3.33;;;2.70;;
577;SDS011;275;48.492;9.214;2023-07-29T01:14:05;3.80;;;2.90;;
577;SDS011;275;48.492;9.214;2023-07-29T01:16:41;4.80;;;2.73;;
577;SDS011;275;48.492;9.214;2023-07-29T01:19:14;3.13;;;2.67;;
577;SDS011;275;48.492;9.214;2023-07-29T01:21:52;4.20;;;2.63;;
577;SDS011;275;48.492;9.214;2023-07-29T01:24:22;3.33;;;2.57;;
577;SDS011;275;48.492;9.214;2023-07-29T01:26:49;4.00;;;3.13;;
577;SDS011;275;48.492;9.214;2023-07-29T01:29:16;3.10;;;2.40;;
577;SDS011;275;48.492;9.214;2023-07-29T01:31:43;3.43;;;2.90;;
577;SDS011;275;48.492;9.214;2023-07-29T01:34:15;4.40;;;2.80;;
577;SDS011;275;48.492;9.214;2023-07-29T01:36:47;3.27;;;2.47;;
577;SDS011;275;48.492;9.214;2023-07-29T01:39:17;5.30;;;3.00;;
577;SDS011;275;48.492;9.214;2023-07-29T01:41:48;3.70;;;3.00;;
577;SDS011;275;48.492;9.214;2023-07-29T01:44:16;3.73;;;2.70;;
577;SDS011;275;48.492;9.214;2023-07-29T01:46:44;4.43;;;3.03;;
577;SDS011;275;48.492;9.214;2023-07-29T01:49:12;4.20;;;3.03;;
577;SDS011;275;48.492;9.214;2023-07-29T01:51:38;3.50;;;2.63;;
577;SDS011;275;48.492;9.214;2023-07-29T01:54:05;4.27;;;3.30;;
577;SDS011;275;48.492;9.214;2023-07-29T01:56:32;4.57;;;3.23;;
577;SDS011;275;48.492;9.214;2023-07-29T01:59:00;4.97;;;3.20;;
577;SDS011;275;48.492;9.214;2023-07-29T02:01:27;4.53;;;2.53;;
577;SDS011;275;48.492;9.214;2023-07-29T02:03:54;4.20;;;3.17;;
577;SDS011;275;48.492;9.214;2023-07-29T02:06:21;3.73;;;3.20;;
577;SDS011;275;48.492;9.214;2023-07-29T02:08:49;3.67;;;3.27;;
577;SDS011;275;48.492;9.214;2023-07-29T02:11:16;4.60;;;3.40;;
577;SDS011;275;48.492;9.214;2023-07-29T02:13:48;4.57;;;3.60;;
577;SDS011;275;48.492;9.214;2023-07-29T02:16:19;4.17;;;3.33;;
577;SDS011;275;48.492;9.214;2023-07-29T02:18:46;4.37;;;3.07;;
577;SDS011;275;48.492;9.214;2023-07-29T02:21:13;4.70;;;3.33;;
577;SDS011;275;48.492;9.214;2023-07-29T02:23:39;3.97;;;3.30;;
577;SDS011;275;48.492;9.214;2023-07-29T02:26:06;3.23;;;2.93;;
577;SDS011;275;48.492;9.214;2023-07-29T02:28:33;4.00;;;2.97;;
577;SDS011;275;48.492;9.214;2023-07-29T02:31:12;3.13;;;2.50;;
577;SDS011;275;48.492;9.214;2023-07-29T02:33:42;3.87;;;3.30;;
577;SDS011;275;48.492;9.214;2023-07-29T02:36:10;3.70;;;3.17;;
577;SDS011;275;48.492;9.214;2023-07-29T02:38:38;4.23;;;3.83;;
577;SDS011;275;48.492;9.214;2023-07-29T02:41:05;3.97;;;3.27;;
577;SDS011;275;48.492;9.214;2023-07-29T02:43:33;4.43;;;3.00;;
577;SDS011;275;48.492;9.214;2023-07-29T02:46:00;4.20;;;3.20;;
577;SDS011;275;48.492;9.214;2023-07-29T02:48:27;4.57;;;3.07;;
577;SDS011;275;48.492;9.214;2023-07-29T02:50:56;3.63;;;3.30;;
577;SDS011;275;48.492;9.214;2023-07-29T02:53:23;3.47;;;3.07;;
577;SDS011;275;48.492;9.214;2023-07-29T02:55:50;5.00;;;3.17;;
577;SDS011;275;48.492;9.214;2023-07-29T02:58:17;4.40;;;2.87;;
577;SDS011;275;48.492;9.214;2023-07-29T03:00:43;3.73;;;3.37;;
577;SDS011;275;48.492;9.214;2023-07-29T03:03:12;3.87;;;2.90;;
577;SDS011;275;48.492;9.214;2023-07-29T03:05:39;3.97;;;3.57;;
577;SDS011;275;48.492;9.214;2023-07-29T03:08:07;4.77;;;3.83;;
577;SDS011;275;48.492;9.214;2023-07-29T03:10:34;4.77;;;4.37;;
577;SDS011;275;48.492;9.214;2023-07-29T03:13:02;6.40;;;5.80;;
577;SDS011;275;48.492;9.214;2023-07-29T03:15:29;7.10;;;4.47;;
577;SDS011;275;48.492;9.214;2023-07-29T03:17:55;5.23;;;4.00;;
577;SDS011;275;48.492;9.214;2023-07-29T03:20:22;5.07;;;4.57;;
577;SDS011;275;48.492;9.214;2023-07-29T03:22:49;5.40;;;4.07;;
577;SDS011;275;48.492;9.214;2023-07-29T03:25:18;4.83;;;4.30;;
577;SDS011;275;48.492;9.214;2023-07-29T03:27:44;7.50;;;4.87;;
577;SDS011;275;48.492;9.214;2023-07-29T03:30:14;9.30;;;8.37;;
577;SDS011;275;48.492;9.214;2023-07-29T03:32:43;9.67;;;8.60;;
577;SDS011;275;48.492;9.214;2023-07-29T03:35:11;8.73;;;7.90;;
577;SDS011;275;48.492;9.214;2023-07-29T03:37:38;12.33;;;8.90;;
577;SDS011;275;48.492;9.214;2023-07-29T03:40:05;8.80;;;8.10;;
577;SDS011;275;48.492;9.214;2023-07-29T03:42:35;7.63;;;7.00;;
577;SDS011;275;48.492;9.214;2023-07-29T03:45:02;7.27;;;6.57;;
577;SDS011;275;48.492;9.214;2023-07-29T03:47:29;6.47;;;5.20;;
577;SDS011;275;48.492;9.214;2023-07-29T03:49:57;6.70;;;4.87;;
577;SDS011;275;48.492;9.214;2023-07-29T03:52:23;5.57;;;3.87;;
577;SDS011;275;48.492;9.214;2023-07-29T03:54:50;6.63;;;4.27;;
577;SDS011;275;48.492;9.214;2023-07-29T03:57:17;5.10;;;4.30;;
577;SDS011;275;48.492;9.214;2023-07-29T03:59:45;6.50;;;5.27;;
577;SDS011;275;48.492;9.214;2023-07-29T04:02:12;5.97;;;4.57;;
577;SDS011;275;48.492;9.214;2023-07-29T04:04:39;6.03;;;4.93;;
577;SDS011;275;48.492;9.214;2023-07-29T04:07:07;6.90;;;4.20;;
577;SDS011;275;48.492;9.214;2023-07-29T04:09:33;4.70;;;3.60;;
577;SDS011;275;48.492;9.214;2023-07-29T04:12:00;4.30;;;3.13;;
577;SDS011;275;48.492;9.214;2023-07-29T04:14:27;3.97;;;3.23;;
577;SDS011;275;48.492;9.214;2023-07-29T04:16:55;4.33;;;3.53;;
577;SDS011;275;48.492;9.214;2023-07-29T04:19:22;6.33;;;3.77;;
577;SDS011;275;48.492;9.214;2023-07-29T04:21:49;5.03;;;3.00;;
577;SDS011;275;48.492;9.214;2023-07-29T04:24:16;5.03;;;2.97;;
577;SDS011;275;48.492;9.214;2023-07-29T04:26:45;6.33;;;3.33;;
577;SDS011;275;48.492;9.214;2023-07-29T04:29:12;4.40;;;2.70;;
577;SDS011;275;48.492;9.214;2023-07-29T04:31:38;4.40;;;2.80;;
577;SDS011;275;48.492;9.214;2023-07-29T04:34:07;4.83;;;2.83;;
577;SDS011;275;48.492;9.214;2023-07-29T04:36:34;4.00;;;2.50;;
577;SDS011;275;48.492;9.214;2023-07-29T04:39:01;3.23;;;2.93;;
577;SDS011;275;48.492;9.214;2023-07-29T04:41:27;4.47;;;3.00;;
577;SDS011;275;48.492;9.214;2023-07-29T04:43:54;4.43;;;3.17;;
577;SDS011;275;48.492;9.214;2023-07-29T04:46:21;5.00;;;3.27;;
577;SDS011;275;48.492;9.214;2023-07-29T04:48:48;3.67;;;3.33;;
577;SDS011;275;48.492;9.214;2023-07-29T04:51:16;3.90;;;3.10;;
577;SDS011;275;48.492;9.214;2023-07-29T04:53:43;3.80;;;3.20;;
577;SDS011;275;48.492;9.214;2023-07-29T04:56:10;6.80;;;3.20;;
577;SDS011;275;48.492;9.214;2023-07-29T04:58:37;4.37;;;3.60;;
577;SDS011;275;48.492;9.214;2023-07-29T05:01:04;6.27;;;4.20;;
577;SDS011;275;48.492;9.214;2023-07-29T05:03:31;5.33;;;4.40;;
577;SDS011;275;48.492;9.214;2023-07-29T05:05:58;4.20;;;3.80;;
577;SDS011;275;48.492;9.214;2023-07-29T05:08:26;4.70;;;3.93;;
577;SDS011;275;48.492;9.214;2023-07-29T05:10:53;4.40;;;4.00;;
577;SDS011;275;48.492;9.214;2023-07-29T05:13:22;7.47;;;4.80;;
577;SDS011;275;48.492;9.214;2023-07-29T05:15:49;4.10;;;3.70;;
577;SDS011;275;48.492;9.214;2023-07-29T05:18:16;4.90;;;3.37;;
577;SDS011;275;48.492;9.214;2023-07-29T05:20:43;3.63;;;3.00;;
577;SDS011;275;48.492;9.214;2023-07-29T05:23:10;3.40;;;2.37;;
577;SDS011;275;48.492;9.214;2023-07-29T05:25:39;4.07;;;2.90;;
577;SDS011;275;48.492;9.214;2023-07-29T05:28:05;4.87;;;3.00;;
577;SDS011;275;48.492;9.214;2023-07-29T05:30:32;5.43;;;3.10;;
577;SDS011;275;48.492;9.214;2023-07-29T05:33:02;5.10;;;2.60;;
577;SDS011;275;48.492;9.214;2023-07-29T05:35:29;4.90;;;3.10;;
577;SDS011;275;48.492;9.214;2023-07-29T05:37:56;5.47;;;2.70;;
577;SDS011;275;48.492;9.214;2023-07-29T05:40:22;5.93;;;2.77;;
577;SDS011;275;48.492;9.214;2023-07-29T05:42:51;3.40;;;2.70;;
577;SDS011;275;48.492;9.214;2023-07-29T05:45:17;4.50;;;3.17;;
577;SDS011;275;48.492;9.214;2023-07-29T05:47:44;5.70;;;3.47;;
577;SDS011;275;48.492;9.214;2023-07-29T05:50:11;3.00;;;2.17;;
577;SDS011;275;48.492;9.214;2023-07-29T05:52:38;3.47;;;2.57;;
577;SDS011;275;48.492;9.214;2023-07-29T05:55:05;3.90;;;2.63;;
577;SDS011;275;48.492;9.214;2023-07-29T05:57:32;4.50;;;2.00;;
577;SDS011;275;48.492;9.214;2023-07-29T06:00:00;5.17;;;2.03;;
577;SDS011;275;48.492;9.214;2023-07-29T06:02:27;3.70;;;1.80;;
577;SDS011;275;48.492;9.214;2023-07-29T06:04:54;3.40;;;2.50;;
577;SDS011;275;48.492;9.214;2023-07-29T06:07:21;4.60;;;2.20;;
577;SDS011;275;48.492;9.214;2023-07-29T06:09:48;3.27;;;2.10;;
577;SDS011;275;48.492;9.214;2023-07-29T06:12:15;5.53;;;2.10;;
577;SDS011;275;48.492;9.214;2023-07-29T06:14:42;4.30;;;1.80;;
577;SDS011;275;48.492;9.214;2023-07-29T06:17:10;3.73;;;2.57;;
577;SDS011;275;48.492;9.214;2023-07-29T06:19:37;4.67;;;2.00;;
577;SDS011;275;48.492;9.214;2023-07-29T06:22:04;4.30;;;2.40;;
577;SDS011;275;48.492;9.214;2023-07-29T06:24:31;3.57;;;1.97;;
577;SDS011;275;48.492;9.214;2023-07-29T06:26:58;4.00;;;2.20;;
577;SDS011;275;48.492;9.214;2023-07-29T06:29:25;3.37;;;2.10;;
577;SDS011;275;48.492;9.214;2023-07-29T06:31:52;3.57;;;2.23;;
577;SDS011;275;48.492;9.214;2023-07-29T06:34:20;3.63;;;2.37;;
577;SDS011;275;48.492;9.214;2023-07-29T06:36:47;2.97;;;1.73;;
577;SDS011;275;48.492;9.214;2023-07-29T06:39:14;4.03;;;2.37;;
577;SDS011;275;48.492;9.214;2023-07-29T06:41:41;2.83;;;1.80;;
577;SDS011;275;48.492;9.214;2023-07-29T06:44:08;3.20;;;1.63;;
577;SDS011;275;48.492;9.214;2023-07-29T06:46:34;3.93;;;2.50;;
577;SDS011;275;48.492;9.214;2023-07-29T06:49:01;3.50;;;2.20;;
577;SDS011;275;48.492;9.214;2023-07-29T06:51:29;3.57;;;1.83;;
577;SDS011;275;48.492;9.214;2023-07-29T06:53:59;3.40;;;2.07;;
577;SDS011;275;48.492;9.214;2023-07-29T06:56:26;4.50;;;2.10;;
577;SDS011;275;48.492;9.214;2023-07-29T06:58:53;4.00;;;2.47;;
577;SDS011;275;48.492;9.214;2023-07-29T07:01:20;4.37;;;2.80;;
577;SDS011;275;48.492;9.214;2023-07-29T07:03:46;5.97;;;2.90;;
577;SDS011;275;48.492;9.214;2023-07-29T07:06:13;3.70;;;2.60;;
577;SDS011;275;48.492;9.214;2023-07-29T07:08:41;6.13;;;3.17;;
577;SDS011;275;48.492;9.214;2023-07-29T07:11:09;6.40;;;3.30;;
577;SDS011;275;48.492;9.214;2023-07-29T07:13:35;5.07;;;2.67;;
577;SDS011;275;48.492;9.214;2023-07-29T07:16:02;4.33;;;3.10;;
577;SDS011;275;48.492;9.214;2023-07-29T07:18:29;4.20;;;3.10;;
577;SDS011;275;48.492;9.214;2023-07-29T07:20:56;3.70;;;2.67;;
577;SDS011;275;48.492;9.214;2023-07-29T07:23:23;3.87;;;2.97;;
577;SDS011;275;48.492;9.214;2023-07-29T07:25:51;6.47;;;3.30;;
577;SDS011;275;48.492;9.214;2023-07-29T07:28:18;4.97;;;3.40;;
577;SDS011;275;48.492;9.214;2023-07-29T07:30:45;5.10;;;2.90;;
577;SDS011;275;48.492;9.214;2023-07-29T07:33:12;6.83;;;3.50;;
577;SDS011;275;48.492;9.214;2023-07-29T07:35:38;4.10;;;3.10;;
577;SDS011;275;48.492;9.214;2023-07-29T07:38:07;4.60;;;3.20;;
577;SDS011;275;48.492;9.214;2023-07-29T07:40:34;5.70;;;3.97;;
577;SDS011;275;48.492;9.214;2023-07-29T07:43:03;6.03;;;3.50;;
577;SDS011;275;48.492;9.214;2023-07-29T07:45:31;4.97;;;3.20;;
577;SDS011;275;48.492;9.214;2023-07-29T07:47:58;7.33;;;3.60;;
577;SDS011;275;48.492;9.214;2023-07-29T07:50:25;4.90;;;3.00;;
577;SDS011;275;48.492;9.214;2023-07-29T07:52:55;4.50;;;2.97;;
577;SDS011;275;48.492;9.214;2023-07-29T07:55:22;4.30;;;3.20;;
577;SDS011;275;48.492;9.214;2023-07-29T07:57:49;4.90;;;3.90;;
577;SDS011;275;48.492;9.214;2023-07-29T08:00:17;5.63;;;3.67;;
577;SDS011;275;48.492;9.214;2023-07-29T08:02:45;5.77;;;3.30;;
577;SDS011;275;48.492;9.214;2023-07-29T08:05:11;3.80;;;3.00;;
577;SDS011;275;48.492;9.214;2023-07-29T08:07:38;3.70;;;2.60;;
577;SDS011;275;48.492;9.214;2023-07-29T08:10:06;4.53;;;2.90;;
577;SDS011;275;48.492;9.214;2023-07-29T08:12:33;4.10;;;2.60;;
577;SDS011;275;48.492;9.214;2023-07-29T08:15:00;4.87;;;2.43;;
577;SDS011;275;48.492;9.214;2023-07-29T08:17:29;4.50;;;3.03;;
577;SDS011;275;48.492;9.214;2023-07-29T08:19:56;5.30;;;2.43;;
577;SDS011;275;48.492;9.214;2023-07-29T08:22:22;3.40;;;1.97;;
577;SDS011;275;48.492;9.214;2023-07-29T08:24:49;3.90;;;2.50;;
577;SDS011;275;48.492;9.214;2023-07-29T08:27:16;4.07;;;2.53;;
577;SDS011;275;48.492;9.214;2023-07-29T08:29:43;3.77;;;2.77;;
577;SDS011;275;48.492;9.214;2023-07-29T08:32:11;4.23;;;2.90;;
577;SDS011;275;48.492;9.214;2023-07-29T08:34:39;4.20;;;2.80;;
577;SDS011;275;48.492;9.214;2023-07-29T08:37:06;3.20;;;2.37;;
577;SDS011;275;48.492;9.214;2023-07-29T08:39:32;4.50;;;2.70;;
577;SDS011;275;48.492;9.214;2023-07-29T08:42:00;4.53;;;3.60;;
577;SDS011;275;48.492;9.214;2023-07-29T08:44:30;4.20;;;3.00;;
577;SDS011;275;48.492;9.214;2023-07-29T08:47:03;4.10;;;3.37;;
577;SDS011;275;48.492;9.214;2023-07-29T08:49:30;4.50;;;3.33;;
577;SDS011;275;48.492;9.214;2023-07-29T08:51:59;5.77;;;3.83;;
577;SDS011;275;48.492;9.214;2023-07-29T08:54:27;4.40;;;4.00;;
577;SDS011;275;48.492;9.214;2023-07-29T08:56:54;4.60;;;3.73;;
577;SDS011;275;48.492;9.214;2023-07-29T08:59:21;4.73;;;3.50;;
577;SDS011;275;48.492;9.214;2023-07-29T09:01:48;4.50;;;3.30;;
577;SDS011;275;48.492;9.214;2023-07-29T09:04:18;4.33;;;3.07;;
577;SDS011;275;48.492;9.214;2023-07-29T09:06:44;5.47;;;3.07;;
577;SDS011;275;48.492;9.214;2023-07-29T09:09:16;4.90;;;3.57;;
577;SDS011;275;48.492;9.214;2023-07-29T09:11:43;4.50;;;2.57;;
577;SDS011;275;48.492;9.214;2023-07-29T09:14:10;5.17;;;2.70;;
577;SDS011;275;48.492;9.214;2023-07-29T09:16:37;4.67;;;2.37;;
577;SDS011;275;48.492;9.214;2023-07-29T09:19:04;4.27;;;3.03;;
577;SDS011;275;48.492;9.214;2023-07-29T09:21:31;3.60;;;2.00;;
577;SDS011;275;48.492;9.214;2023-07-29T09:23:59;4.53;;;2.10;;
577;SDS011;275;48.492;9.214;2023-07-29T09:26:30;4.33;;;2.40;;
577;SDS011;275;48.492;9.214;2023-07-29T09:28:57;4.83;;;2.60;;
577;SDS011;275;48.492;9.214;2023-07-29T09:31:26;3.90;;;2.17;;
577;SDS011;275;48.492;9.214;2023-07-29T09:33:55;4.30;;;2.50;;
577;SDS011;275;48.492;9.214;2023-07-29T09:36:23;5.80;;;2.67;;
577;SDS011;275;48.492;9.214;2023-07-29T09:38:51;3.97;;;2.20;;
577;SDS011;275;48.492;9.214;2023-07-29T09:41:21;5.20;;;2.67;;
577;SDS011;275;48.492;9.214;2023-07-29T09:43:51;4.10;;;2.10;;
577;SDS011;275;48.492;9.214;2023-07-29T09:46:22;3.93;;;2.33;;
577;SDS011;275;48.492;9.214;2023-07-29T09:48:52;4.80;;;2.77;;
577;SDS011;275;48.492;9.214;2023-07-29T09:51:20;4.77;;;2.17;;
577;SDS011;275;48.492;9.214;2023-07-29T09:53:47;4.10;;;2.70;;
577;SDS011;275;48.492;9.214;2023-07-29T09:56:15;4.90;;;2.70;;
577;SDS011;275;48.492;9.214;2023-07-29T09:58:43;3.77;;;2.10;;
577;SDS011;275;48.492;9.214;2023-07-29T10:01:12;4.13;;;2.73;;
577;SDS011;275;48.492;9.214;2023-07-29T10:03:40;6.20;;;3.00;;
577;SDS011;275;48.492;9.214;2023-07-29T10:06:07;4.23;;;2.50;;
577;SDS011;275;48.492;9.214;2023-07-29T10:08:34;5.10;;;2.63;;
577;SDS011;275;48.492;9.214;2023-07-29T10:11:03;4.90;;;2.87;;
577;SDS011;275;48.492;9.214;2023-07-29T10:13:32;3.80;;;2.30;;
577;SDS011;275;48.492;9.214;2023-07-29T10:15:59;6.20;;;2.40;;
577;SDS011;275;48.492;9.214;2023-07-29T10:18:29;4.60;;;2.47;;
577;SDS011;275;48.492;9.214;2023-07-29T10:20:56;4.60;;;3.03;;
577;SDS011;275;48.492;9.214;2023-07-29T10:23:24;4.13;;;2.60;;
577;SDS011;275;48.492;9.214;2023-07-29T10:25:54;5.73;;;2.70;;
577;SDS011;275;48.492;9.214;2023-07-29T10:28:32;4.73;;;2.97;;
577;SDS011;275;48.492;9.214;2023-07-29T10:31:05;4.00;;;2.53;;
577;SDS011;275;48.492;9.214;2023-07-29T10:33:43;4.53;;;2.63;;
577;SDS011;275;48.492;9.214;2023-07-29T10:36:11;4.20;;;2.57;;
577;SDS011;275;48.492;9.214;2023-07-29T10:38:39;3.90;;;2.70;;
577;SDS011;275;48.492;9.214;2023-07-29T10:41:07;4.50;;;2.63;;
577;SDS011;275;48.492;9.214;2023-07-29T10:43:35;5.03;;;2.90;;
577;SDS011;275;48.492;9.214;2023-07-29T10:46:14;5.17;;;2.53;;
577;SDS011;275;48.492;9.214;2023-07-29T10:48:44;5.37;;;2.93;;
577;SDS011;275;48.492;9.214;2023-07-29T10:51:22;3.80;;;2.13;;
577;SDS011;275;48.492;9.214;2023-07-29T10:53:55;4.10;;;2.50;;
577;SDS011;275;48.492;9.214;2023-07-29T10:56:26;5.00;;;3.17;;
577;SDS011;275;48.492;9.214;2023-07-29T10:58:55;5.63;;;3.00;;
577;SDS011;275;48.492;9.214;2023-07-29T11:01:27;3.90;;;2.30;;
577;SDS011;275;48.492;9.214;2023-07-29T11:04:03;4.57;;;2.63;;
577;SDS011;275;48.492;9.214;2023-07-29T11:09:53;4.47;;;2.40;;
577;SDS011;275;48.492;9.214;2023-07-29T11:12:37;4.90;;;2.83;;
577;SDS011;275;48.492;9.214;2023-07-29T11:15:14;5.10;;;2.80;;
577;SDS011;275;48.492;9.214;2023-07-29T11:17:43;5.27;;;3.40;;
577;SDS011;275;48.492;9.214;2023-07-29T11:20:13;5.17;;;2.77;;
577;SDS011;275;48.492;9.214;2023-07-29T11:22:40;9.20;;;3.07;;
577;SDS011;275;48.492;9.214;2023-07-29T11:25:08;4.70;;;3.30;;
577;SDS011;275;48.492;9.214;2023-07-29T11:27:35;4.10;;;2.60;;
577;SDS011;275;48.492;9.214;2023-07-29T11:30:03;4.63;;;3.00;;
577;SDS011;275;48.492;9.214;2023-07-29T11:32:31;5.23;;;2.90;;
577;SDS011;275;48.492;9.214;2023-07-29T11:35:01;4.20;;;2.50;;
577;SDS011;275;48.492;9.214;2023-07-29T11:37:30;4.97;;;2.60;;
577;SDS011;275;48.492;9.214;2023-07-29T11:39:58;5.03;;;3.00;;
577;SDS011;275;48.492;9.214;2023-07-29T11:42:26;4.00;;;1.90;;
577;SDS011;275;48.492;9.214;2023-07-29T11:44:53;3.83;;;2.40;;
577;SDS011;275;48.492;9.214;2023-07-29T11:47:22;4.00;;;2.60;;
577;SDS011;275;48.492;9.214;2023-07-29T11:49:48;3.67;;;2.40;;
577;SDS011;275;48.492;9.214;2023-07-29T11:52:15;4.60;;;2.90;;
577;SDS011;275;48.492;9.214;2023-07-29T11:54:46;4.10;;;2.60;;
577;SDS011;275;48.492;9.214;2023-07-29T11:57:14;4.80;;;2.37;;
577;SDS011;275;48.492;9.214;2023-07-29T11:59:41;4.00;;;2.70;;
577;SDS011;275;48.492;9.214;2023-07-29T12:02:10;4.30;;;2.60;;
577;SDS011;275;48.492;9.214;2023-07-29T12:04:38;4.77;;;2.33;;
577;SDS011;275;48.492;9.214;2023-07-29T12:07:06;3.50;;;1.90;;
577;SDS011;275;48.492;9.214;2023-07-29T12:09:33;3.60;;;1.67;;
577;SDS011;275;48.492;9.214;2023-07-29T12:12:01;4.30;;;2.40;;
577;SDS011;275;48.492;9.214;2023-07-29T12:14:29;4.20;;;2.40;;
577;SDS011;275;48.492;9.214;2023-07-29T12:16:56;4.00;;;2.50;;
577;SDS011;275;48.492;9.214;2023-07-29T12:19:30;4.20;;;2.33;;
577;SDS011;275;48.492;9.214;2023-07-29T12:21:58;4.20;;;2.80;;
577;SDS011;275;48.492;9.214;2023-07-29T12:24:25;3.90;;;1.90;;
577;SDS011;275;48.492;9.214;2023-07-29T12:26:52;4.43;;;2.70;;
577;SDS011;275;48.492;9.214;2023-07-29T12:29:20;5.10;;;2.13;;
577;SDS011;275;48.492;9.214;2023-07-29T12:31:47;3.43;;;1.77;;
577;SDS011;275;48.492;9.214;2023-07-29T12:34:18;4.80;;;2.43;;
577;SDS011;275;48.492;9.214;2023-07-29T12:36:45;4.30;;;2.43;;
577;SDS011;275;48.492;9.214;2023-07-29T12:39:17;4.47;;;2.40;;
577;SDS011;275;48.492;9.214;2023-07-29T12:41:45;6.80;;;2.87;;
577;SDS011;275;48.492;9.214;2023-07-29T12:44:13;3.90;;;2.50;;
577;SDS011;275;48.492;9.214;2023-07-29T12:46:41;3.80;;;2.37;;
577;SDS011;275;48.492;9.214;2023-07-29T12:49:08;6.07;;;2.60;;
577;SDS011;275;48.492;9.214;2023-07-29T12:51:35;4.20;;;2.80;;
577;SDS011;275;48.492;9.214;2023-07-29T12:54:02;4.53;;;2.27;;
577;SDS011;275;48.492;9.214;2023-07-29T12:56:29;8.33;;;2.50;;
577;SDS011;275;48.492;9.214;2023-07-29T12:58:57;4.93;;;2.80;;
577;SDS011;275;48.492;9.214;2023-07-29T13:01:24;3.80;;;2.50;;
577;SDS011;275;48.492;9.214;2023-07-29T13:03:52;5.20;;;2.80;;
577;SDS011;275;48.492;9.214;2023-07-29T13:06:19;4.00;;;2.60;;
577;SDS011;275;48.492;9.214;2023-07-29T13:08:46;4.40;;;2.50;;
577;SDS011;275;48.492;9.214;2023-07-29T13:11:13;4.07;;;2.30;;
577;SDS011;275;48.492;9.214;2023-07-29T13:13:40;5.07;;;2.80;;
577;SDS011;275;48.492;9.214;2023-07-29T13:16:07;4.83;;;2.53;;
577;SDS011;275;48.492;9.214;2023-07-29T13:18:34;4.60;;;2.70;;
577;SDS011;275;48.492;9.214;2023-07-29T13:21:02;4.13;;;2.67;;
577;SDS011;275;48.492;9.214;2023-07-29T13:23:29;4.30;;;2.50;;
577;SDS011;275;48.492;9.214;2023-07-29T13:25:56;5.30;;;3.27;;
577;SDS011;275;48.492;9.214;2023-07-29T13:28:23;4.77;;;2.80;;
577;SDS011;275;48.492;9.214;2023-07-29T13:30:50;3.80;;;2.37;;
577;SDS011;275;48.492;9.214;2023-07-29T13:33:17;4.47;;;3.10;;
577;SDS011;275;48.492;9.214;2023-07-29T13:35:43;5.50;;;2.93;;
577;SDS011;275;48.492;9.214;2023-07-29T13:38:12;3.97;;;2.70;;
577;SDS011;275;48.492;9.214;2023-07-29T13:40:38;4.33;;;2.73;;
577;SDS011;275;48.492;9.214;2023-07-29T13:43:05;4.03;;;2.80;;
577;SDS011;275;48.492;9.214;2023-07-29T13:45:33;5.30;;;2.70;;
577;SDS011;275;48.492;9.214;2023-07-29T13:48:00;4.73;;;2.93;;
577;SDS011;275;48.492;9.214;2023-07-29T13:50:27;4.97;;;2.97;;
577;SDS011;275;48.492;9.214;2023-07-29T13:52:54;5.33;;;2.60;;
577;SDS011;275;48.492;9.214;2023-07-29T13:55:22;5.80;;;2.53;;
577;SDS011;275;48.492;9.214;2023-07-29T13:57:49;5.40;;;3.40;;
577;SDS011;275;48.492;9.214;2023-07-29T14:00:15;4.17;;;2.63;;
577;SDS011;275;48.492;9.214;2023-07-29T14:02:42;5.17;;;3.13;;
577;SDS011;275;48.492;9.214;2023-07-29T14:05:09;5.00;;;2.80;;
577;SDS011;275;48.492;9.214;2023-07-29T14:07:36;4.47;;;2.60;;
577;SDS011;275;48.492;9.214;2023-07-29T14:10:04;4.47;;;2.90;;
577;SDS011;275;48.492;9.214;2023-07-29T14:12:33;4.17;;;2.33;;
577;SDS011;275;48.492;9.214;2023-07-29T14:15:00;4.47;;;2.90;;
577;SDS011;275;48.492;9.214;2023-07-29T14:17:27;4.17;;;2.87;;
577;SDS011;275;48.492;9.214;2023-07-29T14:19:54;4.93;;;2.73;;
577;SDS011;275;48.492;9.214;2023-07-29T14:22:21;3.80;;;2.37;;
577;SDS011;275;48.492;9.214;2023-07-29T14:24:48;4.23;;;2.43;;
577;SDS011;275;48.492;9.214;2023-07-29T14:27:14;5.60;;;2.87;;
577;SDS011;275;48.492;9.214;2023-07-29T14:29:43;3.80;;;2.43;;
577;SDS011;275;48.492;9.214;2023-07-29T14:32:10;3.90;;;2.50;;
577;SDS011;275;48.492;9.214;2023-07-29T14:34:36;6.13;;;2.50;;
577;SDS011;275;48.492;9.214;2023-07-29T14:37:04;4.67;;;2.70;;
577;SDS011;275;48.492;9.214;2023-07-29T14:39:31;4.50;;;3.20;;
577;SDS011;275;48.492;9.214;2023-07-29T14:41:58;5.83;;;3.40;;
577;SDS011;275;48.492;9.214;2023-07-29T14:44:25;4.60;;;3.20;;
577;SDS011;275;48.492;9.214;2023-07-29T14:46:53;4.60;;;2.83;;
577;SDS011;275;48.492;9.214;2023-07-29T14:49:22;4.40;;;2.90;;
577;SDS011;275;48.492;9.214;2023-07-29T14:51:48;4.77;;;3.07;;
577;SDS011;275;48.492;9.214;2023-07-29T14:54:15;5.23;;;3.10;;
577;SDS011;275;48.492;9.214;2023-07-29T14:56:42;4.00;;;2.63;;
577;SDS011;275;48.492;9.214;2023-07-29T14:59:09;4.13;;;2.77;;
577;SDS011;275;48.492;9.214;2023-07-29T15:01:36;4.20;;;2.93;;
577;SDS011;275;48.492;9.214;2023-07-29T15:04:04;4.90;;;2.90;;
577;SDS011;275;48.492;9.214;2023-07-29T15:06:31;4.33;;;2.67;;
577;SDS011;275;48.492;9.214;2023-07-29T15:08:58;4.53;;;3.30;;
577;SDS011;275;48.492;9.214;2023-07-29T15:11:25;6.43;;;3.27;;
577;SDS011;275;48.492;9.214;2023-07-29T15:13:51;4.70;;;3.20;;
577;SDS011;275;48.492;9.214;2023-07-29T15:16:18;4.77;;;3.17;;
577;SDS011;275;48.492;9.214;2023-07-29T15:18:45;6.63;;;3.80;;
577;SDS011;275;48.492;9.214;2023-07-29T15:21:13;4.70;;;3.30;;
577;SDS011;275;48.492;9.214;2023-07-29T15:23:40;5.10;;;3.10;;
577;SDS011;275;48.492;9.214;2023-07-29T15:26:07;4.47;;;3.47;;
577;SDS011;275;48.492;9.214;2023-07-29T15:28:34;5.10;;;3.07;;
577;SDS011;275;48.492;9.214;2023-07-29T15:31:04;5.27;;;3.67;;
577;SDS011;275;48.492;9.214;2023-07-29T15:33:31;5.03;;;2.67;;
577;SDS011;275;48.492;9.214;2023-07-29T15:35:59;4.23;;;2.50;;
577;SDS011;275;48.492;9.214;2023-07-29T15:38:27;4.20;;;2.53;;
577;SDS011;275;48.492;9.214;2023-07-29T15:40:54;5.13;;;2.60;;
577;SDS011;275;48.492;9.214;2023-07-29T15:43:21;4.33;;;2.90;;
577;SDS011;275;48.492;9.214;2023-07-29T15:45:48;4.90;;;2.80;;
577;SDS011;275;48.492;9.214;2023-07-29T15:48:15;5.13;;;2.77;;
577;SDS011;275;48.492;9.214;2023-07-29T15:50:42;5.23;;;2.80;;
577;SDS011;275;48.492;9.214;2023-07-29T15:53:09;4.20;;;2.93;;